Time;durP1;ratioP1;P1;durP2;ratioP2;P2;SDS_P1;SDS_P2;PMS_P1;PMS_P2;Temp;Humidity;BMP_temperature;BMP_pressure;BME280_temperature;BME280_humidity;BME280_pressure;Samples;Min_cycle;Max_cycle;Signal;HPM_P1;HPM_P2
2021/06/22 00:02:02;;;;;;;6.30;1.73;;;12.60;99.90;;;;;;5088845;28;20376;-83
2021/06/22 00:04:29;;;;;;;5.93;1.80;;;12.80;99.90;;;;;;5089615;28;20871;-83
2021/06/22 00:06:56;;;;;;;5.50;2.10;;;12.80;99.90;;;;;;5089766;28;20380;-87
2021/06/22 00:09:23;;;;;;;8.40;2.33;;;13.00;99.90;;;;;;5089719;28;20396;-87
2021/06/22 00:11:50;;;;;;;6.25;1.90;;;13.10;99.90;;;;;;5090190;28;20377;-87
2021/06/22 00:14:17;;;;;;;8.40;1.77;;;13.20;99.90;;;;;;5089775;28;20391;-85
2021/06/22 00:16:44;;;;;;;5.22;1.70;;;13.10;99.90;;;;;;5108479;28;20381;-84
2021/06/22 00:19:13;;;;;;;4.65;1.70;;;13.30;99.90;;;;;;5110181;28;20374;-85
2021/06/22 00:21:40;;;;;;;5.40;1.50;;;13.60;99.90;;;;;;5110092;28;20383;-83
2021/06/22 00:24:08;;;;;;;5.20;1.67;;;14.60;99.90;;;;;;5109852;28;20388;-86
2021/06/22 00:26:36;;;;;;;6.25;1.77;;;15.10;99.90;;;;;;5109941;28;20872;-85
2021/06/22 00:29:03;;;;;;;5.82;2.00;;;15.20;99.90;;;;;;5109893;28;20509;-84
2021/06/22 00:31:30;;;;;;;9.82;2.13;;;15.20;99.90;;;;;;5109281;28;20375;-85
2021/06/22 00:33:58;;;;;;;4.18;1.60;;;15.00;99.90;;;;;;5093810;28;20404;-87
2021/06/22 00:36:25;;;;;;;5.63;1.30;;;14.90;99.90;;;;;;5089129;28;20461;-86
2021/06/22 00:38:52;;;;;;;2.28;1.00;;;14.50;99.90;;;;;;5089346;28;20860;-85
2021/06/22 00:41:21;;;;;;;3.05;1.27;;;14.40;99.90;;;;;;5089320;28;20384;-84
2021/06/22 00:43:48;;;;;;;7.40;1.13;;;14.10;99.90;;;;;;5089665;28;20965;-86
2021/06/22 00:46:15;;;;;;;5.65;1.10;;;14.00;99.90;;;;;;5089561;28;20379;-85
2021/06/22 00:48:42;;;;;;;2.88;1.00;;;13.90;99.90;;;;;;5089177;28;20399;-85
2021/06/22 00:51:09;;;;;;;2.35;0.90;;;14.10;99.90;;;;;;5089050;28;20887;-84
2021/06/22 00:53:37;;;;;;;6.93;1.10;;;14.00;99.90;;;;;;5089392;28;20409;-84
2021/06/22 00:56:04;;;;;;;8.82;1.35;;;14.10;99.90;;;;;;5089455;28;20377;-84
2021/06/22 00:58:31;;;;;;;3.40;1.00;;;14.30;99.90;;;;;;5089357;28;20373;-85
2021/06/22 01:01:01;;;;;;;3.63;0.90;;;14.20;99.90;;;;;;5088406;28;21009;-84
2021/06/22 01:03:28;;;;;;;6.15;1.30;;;14.10;99.90;;;;;;5068594;28;20413;-84
2021/06/22 01:05:56;;;;;;;2.47;1.00;;;14.10;99.90;;;;;;5077144;28;20372;-85
2021/06/22 01:08:23;;;;;;;6.30;1.10;;;14.20;99.90;;;;;;5089009;28;20445;-86
2021/06/22 01:10:50;;;;;;;3.60;1.00;;;14.30;99.90;;;;;;5088828;28;20403;-85
2021/06/22 01:13:17;;;;;;;3.83;1.20;;;14.30;99.90;;;;;;5087532;28;20387;-85
2021/06/22 01:15:44;;;;;;;3.90;0.90;;;14.40;99.90;;;;;;5088862;28;20832;-84
2021/06/22 01:18:11;;;;;;;3.83;0.80;;;14.50;99.90;;;;;;5088978;28;20435;-85
2021/06/22 01:20:39;;;;;;;3.45;0.80;;;14.60;99.90;;;;;;5091708;28;20862;-85
2021/06/22 01:23:07;;;;;;;3.50;0.43;;;14.50;99.90;;;;;;5088291;28;20898;-85
2021/06/22 01:25:36;;;;;;;2.35;0.43;;;14.40;99.90;;;;;;5087851;28;20392;-85
2021/06/22 01:28:03;;;;;;;2.37;0.40;;;14.40;99.90;;;;;;5088674;28;20507;-84
2021/06/22 01:30:32;;;;;;;2.25;0.35;;;14.30;99.90;;;;;;5087555;28;20400;-85
2021/06/22 01:33:00;;;;;;;2.63;0.50;;;14.30;99.90;;;;;;5089421;28;20367;-83
2021/06/22 01:35:28;;;;;;;2.80;0.68;;;14.30;99.90;;;;;;5088679;28;20859;-84
2021/06/22 01:38:08;;;;;;;1.73;0.50;;;14.30;99.90;;;;;;5088465;28;20471;-85
2021/06/22 01:40:43;;;;;;;2.13;0.50;;;14.20;99.90;;;;;;5088394;28;20388;-84
2021/06/22 01:43:10;;;;;;;2.00;0.32;;;14.20;99.90;;;;;;5089572;28;20399;-84
2021/06/22 01:45:38;;;;;;;2.30;0.65;;;14.20;99.90;;;;;;5093403;28;20372;-84
2021/06/22 01:48:05;;;;;;;2.15;0.40;;;14.40;99.90;;;;;;5093302;28;20904;-82
2021/06/22 01:50:32;;;;;;;1.15;0.47;;;14.40;99.90;;;;;;5093343;28;20385;-84
2021/06/22 01:52:59;;;;;;;1.80;0.47;;;14.50;99.90;;;;;;5092945;28;20379;-85
2021/06/22 01:55:40;;;;;;;2.70;0.70;;;14.70;99.90;;;;;;5093244;28;20789;-81
2021/06/22 01:58:10;;;;;;;2.03;0.50;;;14.70;99.90;;;;;;5094175;28;20441;-84
2021/06/22 02:00:38;;;;;;;3.17;0.75;;;14.80;99.90;;;;;;5092349;28;20953;-83
2021/06/22 02:03:07;;;;;;;2.00;0.50;;;14.90;99.90;;;;;;5093859;28;20399;-83
2021/06/22 02:05:34;;;;;;;1.20;0.50;;;14.90;99.90;;;;;;5093313;28;20427;-83
2021/06/22 02:08:01;;;;;;;2.50;0.68;;;14.90;99.90;;;;;;5092076;28;20403;-83
2021/06/22 02:10:29;;;;;;;2.38;0.40;;;15.00;99.90;;;;;;5092399;28;20385;-84
2021/06/22 02:12:56;;;;;;;2.57;0.50;;;15.10;99.90;;;;;;5097502;28;20366;-85
2021/06/22 02:15:23;;;;;;;2.75;0.68;;;15.10;99.90;;;;;;5112649;28;20808;-87
2021/06/22 02:17:50;;;;;;;1.80;0.55;;;15.20;99.90;;;;;;5112542;28;20351;-84
2021/06/22 02:20:18;;;;;;;1.90;0.60;;;15.10;99.90;;;;;;5112247;28;20393;-84
2021/06/22 02:22:45;;;;;;;1.77;0.50;;;15.10;99.90;;;;;;5106969;28;20381;-87
2021/06/22 02:25:13;;;;;;;0.77;0.47;;;15.20;99.90;;;;;;5092464;28;20474;-85
2021/06/22 02:27:41;;;;;;;2.40;0.60;;;15.10;99.90;;;;;;5092341;28;20419;-86
2021/06/22 02:30:12;;;;;;;2.10;1.00;;;15.20;99.90;;;;;;5093340;28;20397;-85
2021/06/22 02:32:41;;;;;;;1.08;0.50;;;15.20;99.90;;;;;;5091035;28;20939;-86
2021/06/22 02:35:11;;;;;;;1.85;0.50;;;15.10;99.90;;;;;;5091563;28;20453;-85
2021/06/22 02:37:40;;;;;;;1.90;0.70;;;15.20;99.90;;;;;;5091821;28;20373;-86
2021/06/22 02:40:09;;;;;;;2.15;0.43;;;15.20;99.90;;;;;;5091583;28;20951;-88
2021/06/22 02:42:36;;;;;;;2.83;0.70;;;15.30;99.90;;;;;;5074724;28;20909;-88
2021/06/22 02:45:04;;;;;;;2.38;0.40;;;15.30;99.90;;;;;;5082285;28;20472;-88
2021/06/22 02:47:31;;;;;;;2.40;0.70;;;15.30;99.90;;;;;;5080351;28;20396;-87
2021/06/22 02:49:58;;;;;;;1.08;0.40;;;15.30;99.90;;;;;;5079172;28;20412;-86
2021/06/22 02:52:25;;;;;;;2.17;0.60;;;15.20;99.90;;;;;;5076878;28;20392;-86
2021/06/22 02:54:53;;;;;;;1.88;0.50;;;15.30;99.90;;;;;;5073380;28;20409;-87
2021/06/22 02:57:20;;;;;;;2.45;0.52;;;15.30;99.90;;;;;;5078237;28;20389;-87
2021/06/22 02:59:47;;;;;;;1.48;0.60;;;15.20;99.90;;;;;;5084604;28;20967;-88
2021/06/22 03:02:14;;;;;;;1.98;0.60;;;15.00;99.90;;;;;;5082599;28;20388;-87
2021/06/22 03:04:42;;;;;;;1.20;0.70;;;14.90;99.90;;;;;;5077801;28;20487;-87
2021/06/22 03:07:09;;;;;;;2.38;1.00;;;14.90;99.90;;;;;;5075360;28;20778;-88
2021/06/22 03:09:36;;;;;;;2.17;0.80;;;14.80;99.90;;;;;;5082010;28;20404;-87
2021/06/22 03:12:04;;;;;;;3.67;0.60;;;14.80;99.90;;;;;;5082423;28;20376;-88
2021/06/22 03:14:31;;;;;;;2.40;1.20;;;14.90;99.90;;;;;;5076072;28;20766;-87
2021/06/22 03:16:58;;;;;;;1.85;0.70;;;14.70;99.90;;;;;;5081187;28;20396;-86
2021/06/22 03:19:26;;;;;;;4.05;0.70;;;14.50;99.90;;;;;;5081258;28;20408;-86
2021/06/22 03:21:53;;;;;;;2.00;0.90;;;14.40;99.90;;;;;;5074732;28;20418;-85
2021/06/22 03:24:21;;;;;;;2.55;0.80;;;14.40;99.90;;;;;;5071596;28;20515;-88
2021/06/22 03:26:48;;;;;;;1.98;0.65;;;14.20;99.90;;;;;;5071866;28;20873;-85
2021/06/22 03:29:16;;;;;;;3.85;0.75;;;14.20;99.90;;;;;;5078708;28;20412;-85
2021/06/22 03:31:45;;;;;;;2.95;0.80;;;14.10;99.90;;;;;;5084368;28;20747;-85
2021/06/22 03:34:12;;;;;;;1.95;0.65;;;14.00;99.90;;;;;;5074898;28;20392;-85
2021/06/22 03:36:40;;;;;;;4.57;0.70;;;14.00;99.90;;;;;;5073703;28;20460;-86
2021/06/22 03:39:10;;;;;;;3.20;0.60;;;13.90;99.90;;;;;;5080486;28;20395;-84
2021/06/22 03:41:38;;;;;;;3.10;0.90;;;13.90;99.90;;;;;;5076021;28;20404;-85
2021/06/22 03:44:06;;;;;;;2.45;0.70;;;13.90;99.90;;;;;;5074025;28;20398;-85
2021/06/22 03:46:33;;;;;;;2.38;0.70;;;13.90;99.90;;;;;;5082182;28;20467;-86
2021/06/22 03:49:00;;;;;;;2.72;0.50;;;13.90;99.90;;;;;;5076388;28;20793;-85
2021/06/22 03:51:28;;;;;;;3.45;0.63;;;13.90;99.90;;;;;;5079375;28;20393;-84
2021/06/22 03:53:55;;;;;;;3.67;0.63;;;14.00;99.90;;;;;;5089574;28;20391;-86
2021/06/22 03:56:24;;;;;;;2.15;0.60;;;14.20;99.90;;;;;;5089054;28;20381;-84
2021/06/22 03:58:52;;;;;;;3.67;0.55;;;14.30;99.90;;;;;;5076612;28;20422;-86
2021/06/22 04:01:19;;;;;;;4.13;0.60;;;14.30;99.90;;;;;;5074624;28;20394;-85
2021/06/22 04:03:46;;;;;;;3.00;0.63;;;14.40;99.90;;;;;;5076843;28;20396;-86
2021/06/22 04:06:13;;;;;;;2.78;0.52;;;14.50;99.90;;;;;;5079617;28;20398;-84
2021/06/22 04:08:41;;;;;;;2.97;0.60;;;14.50;99.90;;;;;;5075398;28;20431;-84
2021/06/22 04:11:09;;;;;;;2.55;0.50;;;14.70;99.90;;;;;;5075138;28;20384;-84
2021/06/22 04:13:37;;;;;;;2.78;0.52;;;14.70;99.90;;;;;;5083649;28;20392;-84
2021/06/22 04:16:05;;;;;;;1.92;0.50;;;14.70;99.90;;;;;;5076384;28;20392;-85
2021/06/22 04:18:33;;;;;;;5.22;0.90;;;14.80;99.90;;;;;;5074525;28;20489;-85
2021/06/22 04:21:01;;;;;;;1.20;0.60;;;14.90;99.90;;;;;;5077792;28;20859;-85
2021/06/22 04:23:29;;;;;;;2.55;0.52;;;14.90;99.90;;;;;;5073983;28;20401;-85
2021/06/22 04:25:57;;;;;;;2.60;0.60;;;15.00;99.90;;;;;;5095779;28;20435;-84
2021/06/22 04:28:24;;;;;;;2.35;0.52;;;15.10;99.90;;;;;;5083554;28;20408;-86
2021/06/22 04:30:51;;;;;;;6.17;0.70;;;15.00;99.90;;;;;;5084027;28;20739;-84
2021/06/22 04:33:19;;;;;;;2.35;0.50;;;14.90;99.90;;;;;;5082598;28;20407;-84
2021/06/22 04:35:47;;;;;;;4.65;0.80;;;14.90;99.90;;;;;;5073968;28;20433;-84
2021/06/22 04:38:15;;;;;;;3.30;0.70;;;14.80;99.90;;;;;;5081661;28;20388;-84
2021/06/22 04:40:42;;;;;;;1.52;0.50;;;14.80;99.90;;;;;;5069843;28;20398;-85
2021/06/22 04:43:09;;;;;;;3.57;0.60;;;14.90;99.90;;;;;;5083423;28;21059;-84
2021/06/22 04:45:37;;;;;;;4.90;0.88;;;14.90;99.90;;;;;;5080332;28;20906;-84
2021/06/22 04:48:05;;;;;;;3.30;0.68;;;15.00;99.90;;;;;;5082052;28;20404;-84
2021/06/22 04:50:33;;;;;;;3.05;0.70;;;15.00;99.90;;;;;;5075321;28;20401;-84
2021/06/22 04:53:02;;;;;;;2.25;0.40;;;14.90;99.90;;;;;;5086859;28;20927;-83
2021/06/22 04:55:29;;;;;;;2.63;0.77;;;14.80;99.90;;;;;;5073029;28;20425;-84
2021/06/22 04:58:00;;;;;;;2.45;0.95;;;14.80;99.90;;;;;;5079023;28;20712;-84
2021/06/22 05:00:29;;;;;;;4.13;0.70;;;14.80;99.90;;;;;;5073671;28;20396;-84
2021/06/22 05:02:57;;;;;;;3.45;0.60;;;14.80;99.90;;;;;;5070749;28;21063;-84
2021/06/22 05:05:25;;;;;;;4.18;0.80;;;14.70;99.90;;;;;;5074012;28;20506;-84
2021/06/22 05:07:53;;;;;;;3.53;0.80;;;14.70;99.90;;;;;;5068288;28;20494;-84
2021/06/22 05:10:20;;;;;;;4.82;0.90;;;14.70;99.90;;;;;;5087543;28;20463;-84
2021/06/22 05:12:47;;;;;;;3.10;0.85;;;14.70;99.90;;;;;;5081604;28;20386;-84
2021/06/22 05:15:14;;;;;;;5.30;1.27;;;14.80;99.90;;;;;;5072807;28;20396;-84
2021/06/22 05:17:42;;;;;;;4.05;1.00;;;14.70;99.90;;;;;;5082393;28;20427;-83
2021/06/22 05:20:10;;;;;;;3.00;0.90;;;14.70;99.90;;;;;;5087494;28;20750;-86
2021/06/22 05:22:37;;;;;;;2.42;0.73;;;14.60;99.90;;;;;;5072520;28;20971;-85
2021/06/22 05:25:05;;;;;;;4.30;0.80;;;14.50;99.90;;;;;;5074407;28;20395;-85
2021/06/22 05:27:33;;;;;;;4.22;0.90;;;14.50;99.90;;;;;;5076088;28;20388;-87
2021/06/22 05:30:00;;;;;;;3.05;0.90;;;14.50;99.90;;;;;;5089784;28;20905;-84
2021/06/22 05:32:27;;;;;;;2.38;0.70;;;14.40;99.90;;;;;;5073259;28;20401;-84
2021/06/22 05:34:54;;;;;;;3.03;0.80;;;14.40;99.90;;;;;;5078036;28;20484;-84
2021/06/22 05:37:23;;;;;;;2.00;0.60;;;14.40;99.90;;;;;;5086835;28;20468;-85
2021/06/22 05:39:51;;;;;;;2.42;1.00;;;14.30;99.90;;;;;;5072645;28;20390;-86
2021/06/22 05:42:22;;;;;;;2.60;0.80;;;14.30;99.90;;;;;;5081074;28;20436;-84
2021/06/22 05:44:49;;;;;;;3.00;0.70;;;14.30;99.90;;;;;;5086885;28;20966;-83
2021/06/22 05:47:16;;;;;;;2.83;0.90;;;14.20;99.90;;;;;;5075019;28;20869;-86
2021/06/22 05:49:44;;;;;;;2.10;0.90;;;14.10;99.90;;;;;;5073584;28;20447;-85
2021/06/22 05:52:11;;;;;;;1.90;0.88;;;14.00;99.90;;;;;;5077777;28;20879;-85
2021/06/22 05:54:39;;;;;;;2.88;0.82;;;13.90;99.90;;;;;;5083583;28;20400;-86
2021/06/22 05:57:07;;;;;;;2.30;0.90;;;13.80;99.90;;;;;;5075436;28;20397;-86
2021/06/22 05:59:34;;;;;;;1.48;0.70;;;13.70;99.90;;;;;;5086906;28;20403;-85
2021/06/22 06:02:02;;;;;;;3.58;0.90;;;13.60;99.90;;;;;;5085925;28;20919;-88
2021/06/22 06:04:31;;;;;;;10.75;1.27;;;13.60;99.90;;;;;;5078198;28;20408;-87
2021/06/22 06:06:58;;;;;;;1.40;0.80;;;13.60;99.90;;;;;;5074401;28;20374;-88
2021/06/22 06:09:26;;;;;;;1.77;0.82;;;13.50;99.90;;;;;;5074555;28;20419;-87
2021/06/22 06:11:54;;;;;;;2.60;0.50;;;13.40;99.90;;;;;;5082769;28;20991;-89
2021/06/22 06:14:23;;;;;;;3.28;0.73;;;13.30;99.90;;;;;;5075992;28;20942;-86
2021/06/22 06:16:50;;;;;;;2.25;0.80;;;13.30;99.90;;;;;;5074777;28;20459;-85
2021/06/22 06:19:18;;;;;;;1.15;0.60;;;13.30;99.90;;;;;;5076217;28;20390;-85
2021/06/22 06:21:46;;;;;;;2.00;0.70;;;13.30;99.90;;;;;;5074164;28;20382;-86
2021/06/22 06:24:13;;;;;;;2.85;0.70;;;13.20;99.90;;;;;;5075602;28;20404;-86
2021/06/22 06:29:26;;;;;;;1.90;0.70;;;13.10;99.90;;;;;;5074487;28;20534;-86
2021/06/22 06:31:53;;;;;;;2.80;0.82;;;13.10;99.90;;;;;;5083293;28;20408;-88
2021/06/22 06:34:20;;;;;;;3.00;1.00;;;13.10;99.90;;;;;;5084803;28;20469;-88
2021/06/22 06:36:48;;;;;;;4.03;1.50;;;13.10;99.90;;;;;;5084117;28;20415;-86
2021/06/22 06:39:15;;;;;;;3.03;2.00;;;12.90;99.90;;;;;;5073128;28;20388;-87
2021/06/22 06:41:42;;;;;;;4.45;2.15;;;12.90;99.90;;;;;;5070545;28;20487;-88
2021/06/22 06:44:10;;;;;;;3.47;1.95;;;12.90;99.90;;;;;;5095648;28;20394;-87
2021/06/22 06:46:37;;;;;;;5.55;2.20;;;12.90;99.90;;;;;;5085056;28;20388;-89
2021/06/22 06:49:04;;;;;;;3.28;1.70;;;12.80;99.90;;;;;;5083289;28;20414;-89
2021/06/22 06:51:31;;;;;;;3.67;1.70;;;12.80;99.90;;;;;;5076218;28;20390;-88
2021/06/22 06:53:58;;;;;;;2.55;1.30;;;12.70;99.90;;;;;;5086978;28;20407;-89
2021/06/22 06:56:26;;;;;;;3.90;1.50;;;12.70;99.90;;;;;;5089518;28;20389;-88
2021/06/22 06:58:53;;;;;;;3.20;1.35;;;12.60;99.90;;;;;;5080381;28;20392;-88
2021/06/22 07:01:20;;;;;;;2.33;1.00;;;12.50;99.90;;;;;;5082808;28;20392;-89
2021/06/22 07:03:47;;;;;;;2.38;1.00;;;12.40;99.90;;;;;;5080003;28;20910;-89
2021/06/22 07:06:15;;;;;;;1.70;1.00;;;12.40;99.90;;;;;;5073892;28;20491;-85
2021/06/22 07:08:43;;;;;;;2.70;1.13;;;12.30;99.90;;;;;;5089285;28;20468;-88
2021/06/22 07:11:10;;;;;;;2.75;1.33;;;12.20;99.90;;;;;;5090868;28;20369;-88
2021/06/22 07:13:38;;;;;;;2.05;1.13;;;12.20;99.90;;;;;;5089442;28;20376;-88
2021/06/22 07:16:06;;;;;;;3.33;1.60;;;12.10;99.90;;;;;;5070588;28;20410;-88
2021/06/22 07:18:33;;;;;;;4.03;1.93;;;12.00;99.90;;;;;;5079266;28;20388;-90
2021/06/22 07:21:00;;;;;;;4.10;1.70;;;12.00;99.90;;;;;;5073151;28;20979;-90
2021/06/22 07:23:31;;;;;;;3.63;1.90;;;11.90;99.90;;;;;;5078651;28;20474;-87
2021/06/22 07:25:58;;;;;;;2.70;1.80;;;11.90;99.90;;;;;;5108239;28;20492;-88
2021/06/22 07:28:26;;;;;;;2.60;1.70;;;11.90;99.90;;;;;;5095390;28;20925;-87
2021/06/22 07:30:53;;;;;;;4.10;1.98;;;11.80;99.90;;;;;;5084409;28;20391;-87
2021/06/22 07:33:21;;;;;;;3.08;1.88;;;11.90;99.90;;;;;;5088401;28;20442;-91
2021/06/22 07:35:48;;;;;;;2.72;1.42;;;11.80;99.90;;;;;;5077589;28;20404;-87
2021/06/22 07:38:15;;;;;;;11.40;9.00;;;11.70;99.90;;;;;;5084125;28;20395;-87
2021/06/22 07:40:42;;;;;;;6.18;5.13;;;11.60;99.90;;;;;;5088133;28;20444;-88
2021/06/22 07:43:10;;;;;;;10.30;6.40;;;11.50;99.90;;;;;;5087045;28;20404;-88
2021/06/22 07:45:37;;;;;;;6.95;5.30;;;11.50;99.90;;;;;;5088134;28;20924;-88
2021/06/22 07:48:04;;;;;;;7.10;5.22;;;11.50;99.90;;;;;;5077550;28;20897;-89
2021/06/22 07:50:32;;;;;;;8.27;4.40;;;11.40;99.90;;;;;;5072291;28;20408;-89
2021/06/22 07:53:01;;;;;;;5.78;3.63;;;11.40;99.90;;;;;;5085280;28;20392;-84
2021/06/22 07:55:33;;;;;;;4.38;2.50;;;11.30;99.90;;;;;;5095699;28;20400;-84
2021/06/22 07:58:00;;;;;;;4.70;2.60;;;11.30;99.90;;;;;;5085580;28;20481;-89
2021/06/22 08:00:41;;;;;;;4.40;2.57;;;11.30;99.90;;;;;;5089283;28;20897;-90
2021/06/22 08:03:10;;;;;;;4.63;3.05;;;11.20;99.90;;;;;;5089789;28;20384;-85
2021/06/22 08:05:38;;;;;;;7.53;6.57;;;11.20;99.90;;;;;;5084321;28;20511;-88
2021/06/22 08:08:07;;;;;;;10.88;8.85;;;11.20;99.90;;;;;;5069353;28;20396;-89
2021/06/22 08:10:34;;;;;;;19.90;14.32;;;11.20;99.90;;;;;;5074279;28;20479;-89
2021/06/22 08:13:02;;;;;;;21.17;16.52;;;11.20;99.90;;;;;;5086185;28;20395;-89
2021/06/22 08:15:32;;;;;;;16.70;13.97;;;11.20;99.90;;;;;;5078452;28;20483;-90
2021/06/22 08:17:59;;;;;;;17.67;14.07;;;11.20;99.90;;;;;;5079300;28;20397;-90
2021/06/22 08:20:26;;;;;;;15.27;12.13;;;11.20;99.90;;;;;;5070797;28;20811;-87
2021/06/22 08:22:56;;;;;;;10.43;7.18;;;11.20;99.90;;;;;;5081334;28;20394;-88
2021/06/22 08:25:25;;;;;;;8.37;6.10;;;11.20;99.90;;;;;;5079716;28;20486;-87
2021/06/22 08:27:52;;;;;;;7.40;4.50;;;11.20;99.90;;;;;;5075971;28;20399;-84
2021/06/22 08:30:22;;;;;;;6.80;4.10;;;11.30;99.90;;;;;;5079996;28;20422;-90
2021/06/22 08:32:49;;;;;;;7.45;3.90;;;11.30;99.90;;;;;;5089567;28;20376;-88
2021/06/22 08:35:16;;;;;;;7.18;3.60;;;11.30;99.90;;;;;;5086045;28;20806;-89
2021/06/22 08:37:44;;;;;;;4.40;3.33;;;11.40;99.90;;;;;;5075733;28;20394;-89
2021/06/22 08:40:13;;;;;;;5.60;3.42;;;11.50;99.90;;;;;;5075206;28;20416;-88
2021/06/22 08:42:41;;;;;;;6.43;3.78;;;11.50;99.90;;;;;;5073557;28;20480;-88
2021/06/22 08:45:16;;;;;;;6.38;4.55;;;11.50;99.90;;;;;;5090487;28;20416;-90
2021/06/22 08:47:44;;;;;;;8.35;5.35;;;11.50;99.90;;;;;;5080766;28;20389;-87
2021/06/22 08:50:14;;;;;;;9.52;5.18;;;11.60;99.90;;;;;;5091349;28;20414;-87
2021/06/22 08:52:42;;;;;;;7.38;4.07;;;11.60;99.90;;;;;;5081526;28;20397;-88
2021/06/22 08:55:31;;;;;;;8.07;4.78;;;11.60;99.90;;;;;;5075664;28;20472;-88
2021/06/22 08:57:59;;;;;;;7.47;4.05;;;11.70;99.90;;;;;;5078305;28;20428;-89
2021/06/22 09:00:27;;;;;;;7.82;6.20;;;11.70;99.90;;;;;;5081660;28;20426;-89
2021/06/22 09:03:10;;;;;;;9.57;6.93;;;11.60;99.90;;;;;;5076398;28;20398;-89
2021/06/22 09:05:38;;;;;;;7.88;6.90;;;11.60;99.90;;;;;;5079456;28;20465;-90
2021/06/22 09:08:16;;;;;;;9.20;6.80;;;11.60;99.90;;;;;;5078792;28;20409;-91
2021/06/22 09:10:43;;;;;;;9.95;6.57;;;11.70;99.90;;;;;;5086414;28;20479;-90
2021/06/22 09:13:24;;;;;;;9.80;6.80;;;11.70;99.90;;;;;;5077177;28;20472;-90
2021/06/22 09:15:53;;;;;;;20.23;18.13;;;11.70;99.90;;;;;;5080260;28;20389;-93
2021/06/22 09:18:39;;;;;;;15.70;14.10;;;11.80;99.90;;;;;;5068403;28;20718;-88
2021/06/22 09:21:11;;;;;;;14.27;9.70;;;11.80;99.90;;;;;;5082321;28;20809;-89
2021/06/22 09:23:41;;;;;;;5.38;4.07;;;11.90;99.90;;;;;;5074376;28;20473;-91
2021/06/22 09:26:21;;;;;;;5.13;2.65;;;11.90;99.90;;;;;;5075558;28;20406;-88
2021/06/22 09:28:50;;;;;;;5.80;2.85;;;12.00;99.90;;;;;;5077985;28;20414;-91
2021/06/22 09:31:20;;;;;;;3.22;2.70;;;12.00;99.90;;;;;;5072253;28;20395;-89
2021/06/22 09:33:57;;;;;;;5.05;2.88;;;12.10;99.90;;;;;;5086191;28;20894;-90
2021/06/22 09:36:29;;;;;;;4.88;2.67;;;12.10;99.90;;;;;;5078317;28;20401;-88
2021/06/22 09:38:59;;;;;;;5.97;3.10;;;12.10;99.90;;;;;;5082272;28;20406;-86
2021/06/22 09:41:28;;;;;;;6.63;3.17;;;12.10;99.90;;;;;;5088087;28;20401;-87
2021/06/22 09:44:12;;;;;;;7.10;4.35;;;12.10;99.90;;;;;;5088327;28;20392;-88
2021/06/22 09:46:50;;;;;;;20.05;14.48;;;12.10;99.90;;;;;;5078931;28;20373;-91
2021/06/22 09:49:19;;;;;;;6.00;4.55;;;12.00;99.90;;;;;;5073255;28;20437;-89
2021/06/22 09:54:21;;;;;;;6.70;3.35;;;11.90;99.90;;;;;;5087258;28;20739;-86
2021/06/22 09:57:18;;;;;;;4.72;2.60;;;12.00;99.90;;;;;;5088072;28;20383;-88
2021/06/22 09:59:50;;;;;;;3.38;2.20;;;11.90;99.90;;;;;;5085890;28;20395;-88
2021/06/22 10:02:18;;;;;;;4.47;3.20;;;12.00;99.90;;;;;;5084268;28;20395;-87
2021/06/22 10:04:46;;;;;;;4.97;4.07;;;12.00;99.90;;;;;;5089660;28;20400;-88
2021/06/22 10:07:19;;;;;;;6.85;4.15;;;12.00;99.90;;;;;;5090888;28;20785;-87
2021/06/22 10:09:53;;;;;;;10.55;7.55;;;12.00;99.90;;;;;;5082685;28;20484;-88
2021/06/22 10:12:22;;;;;;;8.27;5.80;;;11.90;99.90;;;;;;5085540;28;20395;-87
2021/06/22 10:14:51;;;;;;;7.93;3.88;;;11.90;99.90;;;;;;5088434;28;20396;-87
2021/06/22 10:17:21;;;;;;;5.20;3.40;;;11.90;99.90;;;;;;5087759;28;20897;-88
2021/06/22 10:19:50;;;;;;;4.53;3.65;;;11.80;99.90;;;;;;5084674;28;20403;-89
2021/06/22 10:22:21;;;;;;;10.65;7.38;;;11.80;99.90;;;;;;5081136;28;21190;-89
2021/06/22 10:24:48;;;;;;;7.53;6.25;;;11.70;99.90;;;;;;5069275;28;20489;-87
2021/06/22 10:27:18;;;;;;;6.80;4.00;;;11.70;99.90;;;;;;5074142;28;20395;-87
2021/06/22 10:29:46;;;;;;;6.25;4.05;;;11.60;99.90;;;;;;5086191;28;20886;-87
2021/06/22 10:32:15;;;;;;;4.78;3.20;;;11.70;99.90;;;;;;5084036;28;20912;-87
2021/06/22 10:34:50;;;;;;;3.55;2.90;;;11.60;99.90;;;;;;5087206;28;20509;-84
2021/06/22 10:37:30;;;;;;;5.55;3.08;;;11.60;99.90;;;;;;5077549;28;20394;-92
2021/06/22 10:40:16;;;;;;;4.67;2.70;;;11.60;99.90;;;;;;5068391;28;20398;-87
2021/06/22 10:43:06;;;;;;;3.40;2.60;;;11.50;99.90;;;;;;5071374;28;21208;-86
2021/06/22 10:45:51;;;;;;;4.40;2.85;;;11.50;99.90;;;;;;5072652;28;20486;-86
2021/06/22 10:48:19;;;;;;;4.00;2.90;;;11.50;99.90;;;;;;5075842;28;20396;-88
2021/06/22 10:50:46;;;;;;;7.35;3.25;;;11.50;99.90;;;;;;5085990;28;21017;-88
2021/06/22 10:53:13;;;;;;;4.65;3.15;;;11.40;99.90;;;;;;5087127;28;20748;-87
2021/06/22 10:55:47;;;;;;;3.47;2.80;;;11.40;99.90;;;;;;5079462;28;20460;-87
2021/06/22 10:58:17;;;;;;;4.65;2.75;;;11.30;99.90;;;;;;5099897;28;20403;-87
2021/06/22 11:00:49;;;;;;;3.67;2.47;;;11.30;99.90;;;;;;5083263;28;20388;-87
2021/06/22 11:03:22;;;;;;;6.05;2.30;;;11.30;99.90;;;;;;5086170;28;20388;-86
2021/06/22 11:06:03;;;;;;;3.83;2.63;;;11.40;99.90;;;;;;5080691;28;20445;-87
2021/06/22 11:08:32;;;;;;;5.20;3.00;;;11.40;99.90;;;;;;5067286;28;20394;-87
2021/06/22 11:10:59;;;;;;;3.87;3.00;;;11.40;99.90;;;;;;5067765;28;20752;-87
2021/06/22 11:13:32;;;;;;;7.38;4.97;;;11.40;99.90;;;;;;5079369;28;20388;-87
2021/06/22 11:16:02;;;;;;;5.90;5.30;;;11.30;99.90;;;;;;5085924;28;20498;-87
2021/06/22 11:18:55;;;;;;;8.88;5.90;;;11.30;99.90;;;;;;5086617;28;20396;-87
2021/06/22 11:21:25;;;;;;;8.65;6.00;;;11.20;99.90;;;;;;5071662;28;20386;-87
2021/06/22 11:24:00;;;;;;;6.03;5.45;;;11.20;99.90;;;;;;5082262;28;20473;-86
2021/06/22 11:26:29;;;;;;;6.85;5.22;;;11.20;99.90;;;;;;5067753;28;20468;-87
2021/06/22 11:28:59;;;;;;;6.18;5.13;;;11.10;99.90;;;;;;5081027;28;20415;-87
2021/06/22 11:31:46;;;;;;;8.07;6.40;;;11.10;99.90;;;;;;5086349;28;20400;-88
2021/06/22 11:34:22;;;;;;;7.90;5.75;;;10.90;99.90;;;;;;5080343;28;20877;-86
2021/06/22 11:36:54;;;;;;;6.68;5.82;;;10.80;99.90;;;;;;5068708;28;20472;-87
2021/06/22 11:39:24;;;;;;;6.20;5.60;;;10.60;99.90;;;;;;5084097;28;20404;-86
2021/06/22 11:44:44;;;;;;;8.25;6.35;;;10.40;99.90;;;;;;5081758;28;20412;-88
2021/06/22 11:47:33;;;;;;;11.82;9.02;;;10.30;99.90;;;;;;5079962;28;20545;-88
2021/06/22 11:50:27;;;;;;;10.07;8.98;;;10.10;99.90;;;;;;5076798;28;20887;-87
2021/06/22 11:53:07;;;;;;;9.52;8.13;;;10.00;99.90;;;;;;5078293;28;20402;-87
2021/06/22 11:55:43;;;;;;;10.60;8.40;;;10.00;99.90;;;;;;5085751;28;20415;-87
2021/06/22 11:58:16;;;;;;;10.38;7.75;;;10.00;99.90;;;;;;5082603;28;20396;-86
2021/06/22 12:00:43;;;;;;;8.40;7.03;;;10.00;99.90;;;;;;5068018;28;20486;-87
2021/06/22 12:03:09;;;;;;;7.07;4.65;;;10.10;99.90;;;;;;5071511;28;20951;-87
2021/06/22 12:05:38;;;;;;;7.10;3.90;;;10.20;99.90;;;;;;5084061;28;20426;-88
2021/06/22 12:08:07;;;;;;;7.43;4.78;;;10.30;99.90;;;;;;5074404;28;20457;-87
2021/06/22 12:10:52;;;;;;;6.93;3.50;;;10.40;99.90;;;;;;5073466;28;20422;-87
2021/06/22 12:13:30;;;;;;;5.00;2.92;;;10.40;99.90;;;;;;5081313;28;20404;-87
2021/06/22 12:15:57;;;;;;;5.18;2.75;;;10.50;99.90;;;;;;5085646;28;20411;-87
2021/06/22 12:18:28;;;;;;;6.13;2.85;;;10.60;99.90;;;;;;5087382;28;20400;-86
2021/06/22 12:20:56;;;;;;;7.78;4.70;;;10.70;99.90;;;;;;5083428;28;20396;-86
2021/06/22 12:23:23;;;;;;;11.18;6.80;;;10.70;99.90;;;;;;5090521;28;20384;-85
2021/06/22 12:25:55;;;;;;;10.52;6.80;;;10.70;99.90;;;;;;5087052;28;20887;-84
2021/06/22 12:28:25;;;;;;;10.10;7.07;;;10.70;99.90;;;;;;5080584;28;20917;-84
2021/06/22 12:30:59;;;;;;;7.15;5.97;;;10.70;99.90;;;;;;5085482;28;20377;-86
2021/06/22 12:33:29;;;;;;;8.70;6.35;;;10.60;99.90;;;;;;5086128;28;20720;-88
2021/06/22 12:36:19;;;;;;;7.68;5.82;;;10.60;99.90;;;;;;5088347;28;20420;-85
2021/06/22 12:38:49;;;;;;;7.85;6.20;;;10.70;99.90;;;;;;5088180;28;20388;-86
2021/06/22 12:41:16;;;;;;;8.33;6.57;;;10.60;99.90;;;;;;5087642;28;20396;-85
2021/06/22 12:43:52;;;;;;;8.00;5.95;;;10.60;99.90;;;;;;5071628;28;20390;-84
2021/06/22 12:46:26;;;;;;;6.45;5.55;;;10.50;99.90;;;;;;5078558;28;20440;-84
2021/06/22 12:49:23;;;;;;;7.25;6.07;;;10.40;99.90;;;;;;5087563;28;20408;-85
2021/06/22 12:51:56;;;;;;;8.68;6.82;;;10.40;99.90;;;;;;5074223;28;20388;-85
2021/06/22 12:54:26;;;;;;;8.45;6.47;;;10.30;99.90;;;;;;5092132;28;20472;-85
2021/06/22 12:56:59;;;;;;;9.18;7.05;;;10.10;99.90;;;;;;5074605;28;20390;-85
2021/06/22 12:59:28;;;;;;;8.38;6.35;;;10.10;99.90;;;;;;5087012;28;20409;-84
2021/06/22 13:02:06;;;;;;;7.22;5.68;;;10.00;99.90;;;;;;5083831;28;20390;-85
2021/06/22 13:04:51;;;;;;;10.48;5.60;;;10.10;99.90;;;;;;5074113;28;20404;-84
2021/06/22 13:07:24;;;;;;;7.93;5.13;;;10.10;99.90;;;;;;5080335;28;20406;-84